sensor_id;sensor_type;location;lat;lon;timestamp;pressure;altitude;pressure_sealevel;temperature;humidity
35758;BME280;21879;50.110;18.900;2023-04-30T00:07:34;98577.40;;;12.87;67.41
35758;BME280;21879;50.110;18.900;2023-04-30T00:17:59;98588.90;;;12.80;67.25
35758;BME280;21879;50.110;18.900;2023-04-30T00:28:25;98587.52;;;12.70;67.50
35758;BME280;21879;50.110;18.900;2023-04-30T00:38:51;98590.69;;;12.69;67.70
35758;BME280;21879;50.110;18.900;2023-04-30T00:49:16;98592.23;;;12.71;67.56
35758;BME280;21879;50.110;18.900;2023-04-30T00:59:43;98595.36;;;12.62;67.45
35758;BME280;21879;50.110;18.900;2023-04-30T01:10:10;98595.73;;;12.52;67.58
35758;BME280;21879;50.110;18.900;2023-04-30T01:20:35;98595.38;;;12.52;67.81
35758;BME280;21879;50.110;18.900;2023-04-30T01:31:03;98598.63;;;12.46;67.74
35758;BME280;21879;50.110;18.900;2023-04-30T01:41:53;98604.55;;;12.46;67.77
35758;BME280;21879;50.110;18.900;2023-04-30T01:52:25;98610.23;;;12.41;67.76
35758;BME280;21879;50.110;18.900;2023-04-30T02:02:56;98610.45;;;12.38;68.15
35758;BME280;21879;50.110;18.900;2023-04-30T02:13:22;98619.39;;;12.37;68.23
35758;BME280;21879;50.110;18.900;2023-04-30T02:23:48;98635.27;;;12.35;68.39
35758;BME280;21879;50.110;18.900;2023-04-30T02:34:14;98639.38;;;12.29;68.58
35758;BME280;21879;50.110;18.900;2023-04-30T02:44:39;98638.71;;;12.18;68.57
35758;BME280;21879;50.110;18.900;2023-04-30T02:55:14;98643.24;;;12.08;68.63
35758;BME280;21879;50.110;18.900;2023-04-30T03:05:40;98647.44;;;11.83;68.66
35758;BME280;21879;50.110;18.900;2023-04-30T03:16:06;98664.81;;;11.62;68.41
35758;BME280;21879;50.110;18.900;2023-04-30T03:26:32;98675.45;;;11.21;67.04
35758;BME280;21879;50.110;18.900;2023-04-30T03:36:58;98709.50;;;10.62;66.29
35758;BME280;21879;50.110;18.900;2023-04-30T03:47:24;98725.83;;;10.44;66.82
35758;BME280;21879;50.110;18.900;2023-04-30T03:57:51;98743.05;;;10.43;66.85
35758;BME280;21879;50.110;18.900;2023-04-30T04:08:17;98755.41;;;10.42;66.89
35758;BME280;21879;50.110;18.900;2023-04-30T04:18:43;98767.47;;;10.55;67.17
35758;BME280;21879;50.110;18.900;2023-04-30T04:29:10;98788.25;;;10.66;67.24
35758;BME280;21879;50.110;18.900;2023-04-30T04:39:36;98802.08;;;10.75;67.17
35758;BME280;21879;50.110;18.900;2023-04-30T04:50:02;98818.58;;;10.77;66.64
35758;BME280;21879;50.110;18.900;2023-04-30T05:00:28;98827.30;;;10.73;66.28
35758;BME280;21879;50.110;18.900;2023-04-30T05:10:54;98842.27;;;10.73;66.00
35758;BME280;21879;50.110;18.900;2023-04-30T05:21:20;98856.73;;;10.69;65.86
35758;BME280;21879;50.110;18.900;2023-04-30T05:31:46;98879.20;;;10.65;65.76
35758;BME280;21879;50.110;18.900;2023-04-30T05:42:12;98900.19;;;10.73;65.59
35758;BME280;21879;50.110;18.900;2023-04-30T05:52:39;98910.74;;;10.79;65.37
35758;BME280;21879;50.110;18.900;2023-04-30T06:03:05;98916.24;;;10.88;65.04
35758;BME280;21879;50.110;18.900;2023-04-30T06:13:31;98924.52;;;10.99;64.77
35758;BME280;21879;50.110;18.900;2023-04-30T06:23:58;98926.63;;;11.17;64.78
35758;BME280;21879;50.110;18.900;2023-04-30T06:34:23;98934.05;;;11.80;64.85
35758;BME280;21879;50.110;18.900;2023-04-30T06:44:49;98947.52;;;12.37;63.46
35758;BME280;21879;50.110;18.900;2023-04-30T06:55:15;98960.96;;;12.49;62.37
35758;BME280;21879;50.110;18.900;2023-04-30T07:05:41;98964.16;;;12.83;62.33
35758;BME280;21879;50.110;18.900;2023-04-30T07:16:08;98958.23;;;13.61;61.63
35758;BME280;21879;50.110;18.900;2023-04-30T07:26:35;98951.58;;;14.26;59.66
35758;BME280;21879;50.110;18.900;2023-04-30T07:37:00;98952.75;;;14.63;58.04
35758;BME280;21879;50.110;18.900;2023-04-30T07:47:27;98961.84;;;14.72;56.44
35758;BME280;21879;50.110;18.900;2023-04-30T07:57:53;98977.27;;;14.70;55.52
35758;BME280;21879;50.110;18.900;2023-04-30T08:08:18;98983.66;;;14.58;53.99
35758;BME280;21879;50.110;18.900;2023-04-30T08:18:45;98992.14;;;14.54;53.44
35758;BME280;21879;50.110;18.900;2023-04-30T08:29:12;98991.50;;;14.33;52.84
35758;BME280;21879;50.110;18.900;2023-04-30T08:39:38;98990.72;;;14.28;52.97
35758;BME280;21879;50.110;18.900;2023-04-30T08:50:05;98991.95;;;14.19;51.73
35758;BME280;21879;50.110;18.900;2023-04-30T09:00:32;98996.05;;;14.15;50.62
35758;BME280;21879;50.110;18.900;2023-04-30T09:10:59;98995.69;;;14.24;50.10
35758;BME280;21879;50.110;18.900;2023-04-30T09:21:35;99012.98;;;14.43;49.81
35758;BME280;21879;50.110;18.900;2023-04-30T09:32:08;99004.55;;;14.53;49.13
35758;BME280;21879;50.110;18.900;2023-04-30T09:42:35;99003.31;;;14.72;49.67
35758;BME280;21879;50.110;18.900;2023-04-30T09:53:07;98992.70;;;14.77;48.46
35758;BME280;21879;50.110;18.900;2023-04-30T10:03:33;98996.42;;;14.75;46.58
35758;BME280;21879;50.110;18.900;2023-04-30T10:14:01;98989.67;;;14.79;47.55
35758;BME280;21879;50.110;18.900;2023-04-30T10:24:28;98979.85;;;14.80;45.73
35758;BME280;21879;50.110;18.900;2023-04-30T10:35:05;98976.73;;;14.63;45.20
35758;BME280;21879;50.110;18.900;2023-04-30T10:45:40;98974.25;;;14.64;45.53
35758;BME280;21879;50.110;18.900;2023-04-30T10:56:08;98968.08;;;14.82;45.29
35758;BME280;21879;50.110;18.900;2023-04-30T11:06:53;98960.73;;;14.74;44.58
35758;BME280;21879;50.110;18.900;2023-04-30T11:17:23;98961.19;;;14.93;44.82
35758;BME280;21879;50.110;18.900;2023-04-30T11:27:52;98965.33;;;15.11;44.48
35758;BME280;21879;50.110;18.900;2023-04-30T11:38:28;98963.20;;;15.12;43.41
35758;BME280;21879;50.110;18.900;2023-04-30T11:48:54;98965.46;;;15.13;42.75
35758;BME280;21879;50.110;18.900;2023-04-30T11:59:22;98969.93;;;15.23;43.58
35758;BME280;21879;50.110;18.900;2023-04-30T12:09:54;98965.98;;;15.35;42.72
35758;BME280;21879;50.110;18.900;2023-04-30T12:20:21;98967.16;;;15.37;42.29
35758;BME280;21879;50.110;18.900;2023-04-30T12:30:48;98962.13;;;15.48;42.26
35758;BME280;21879;50.110;18.900;2023-04-30T12:41:14;98953.02;;;15.62;42.35
35758;BME280;21879;50.110;18.900;2023-04-30T12:51:43;98945.14;;;15.69;42.47
35758;BME280;21879;50.110;18.900;2023-04-30T13:02:12;98937.30;;;15.67;41.78
35758;BME280;21879;50.110;18.900;2023-04-30T13:12:39;98929.89;;;15.69;40.86
35758;BME280;21879;50.110;18.900;2023-04-30T13:23:04;98923.23;;;15.69;41.11
35758;BME280;21879;50.110;18.900;2023-04-30T13:33:30;98918.31;;;15.70;41.09
35758;BME280;21879;50.110;18.900;2023-04-30T13:43:56;98912.50;;;15.77;41.40
35758;BME280;21879;50.110;18.900;2023-04-30T13:54:23;98922.56;;;15.82;40.95
35758;BME280;21879;50.110;18.900;2023-04-30T14:04:49;98921.16;;;15.82;40.98
35758;BME280;21879;50.110;18.900;2023-04-30T14:15:30;98921.30;;;15.77;39.91
35758;BME280;21879;50.110;18.900;2023-04-30T14:25:56;98917.58;;;15.78;40.07
35758;BME280;21879;50.110;18.900;2023-04-30T14:36:22;98923.95;;;15.82;40.01
35758;BME280;21879;50.110;18.900;2023-04-30T14:46:48;98925.13;;;15.84;40.18
35758;BME280;21879;50.110;18.900;2023-04-30T14:57:15;98921.17;;;15.81;39.62
35758;BME280;21879;50.110;18.900;2023-04-30T15:07:42;98920.02;;;15.78;39.53
35758;BME280;21879;50.110;18.900;2023-04-30T15:18:07;98924.73;;;15.79;39.95
35758;BME280;21879;50.110;18.900;2023-04-30T15:28:34;98919.58;;;15.81;39.92
35758;BME280;21879;50.110;18.900;2023-04-30T15:39:00;98923.42;;;15.76;39.18
35758;BME280;21879;50.110;18.900;2023-04-30T15:49:26;98922.61;;;15.66;38.87
35758;BME280;21879;50.110;18.900;2023-04-30T15:59:53;98923.48;;;15.52;38.94
35758;BME280;21879;50.110;18.900;2023-04-30T16:10:20;98924.65;;;15.55;38.87
35758;BME280;21879;50.110;18.900;2023-04-30T16:20:47;98921.34;;;15.54;38.72
35758;BME280;21879;50.110;18.900;2023-04-30T16:31:13;98919.14;;;15.44;38.37
35758;BME280;21879;50.110;18.900;2023-04-30T16:41:40;98920.05;;;15.35;38.42
35758;BME280;21879;50.110;18.900;2023-04-30T16:52:07;98924.30;;;15.20;38.17
35758;BME280;21879;50.110;18.900;2023-04-30T17:02:33;98930.46;;;15.11;38.48
35758;BME280;21879;50.110;18.900;2023-04-30T17:12:58;98943.45;;;15.03;38.03
35758;BME280;21879;50.110;18.900;2023-04-30T17:23:27;98958.02;;;14.93;37.90
35758;BME280;21879;50.110;18.900;2023-04-30T17:33:53;98970.11;;;14.78;38.12
35758;BME280;21879;50.110;18.900;2023-04-30T17:44:19;98980.11;;;14.61;38.45
35758;BME280;21879;50.110;18.900;2023-04-30T17:54:45;98992.15;;;14.44;38.30
35758;BME280;21879;50.110;18.900;2023-04-30T18:05:11;99006.77;;;14.30;38.44
35758;BME280;21879;50.110;18.900;2023-04-30T18:15:39;99008.86;;;14.13;38.49
35758;BME280;21879;50.110;18.900;2023-04-30T18:26:06;99012.67;;;13.95;39.05
35758;BME280;21879;50.110;18.900;2023-04-30T18:36:31;99023.78;;;13.70;39.26
35758;BME280;21879;50.110;18.900;2023-04-30T18:46:59;99034.10;;;13.70;39.56
35758;BME280;21879;50.110;18.900;2023-04-30T18:57:25;99036.31;;;13.62;39.82
35758;BME280;21879;50.110;18.900;2023-04-30T19:07:52;99045.26;;;13.60;40.69
35758;BME280;21879;50.110;18.900;2023-04-30T19:18:17;99056.25;;;13.50;40.87
35758;BME280;21879;50.110;18.900;2023-04-30T19:28:43;99066.33;;;13.17;41.43
35758;BME280;21879;50.110;18.900;2023-04-30T19:39:09;99067.02;;;12.90;42.18
35758;BME280;21879;50.110;18.900;2023-04-30T19:49:35;99073.83;;;12.77;42.57
35758;BME280;21879;50.110;18.900;2023-04-30T20:00:01;99078.03;;;12.61;42.81
35758;BME280;21879;50.110;18.900;2023-04-30T20:10:30;99081.23;;;12.41;43.17
35758;BME280;21879;50.110;18.900;2023-04-30T20:20:58;99084.36;;;12.24;43.28
35758;BME280;21879;50.110;18.900;2023-04-30T20:31:24;99090.95;;;11.88;44.06
35758;BME280;21879;50.110;18.900;2023-04-30T20:41:54;99092.19;;;11.63;44.73
35758;BME280;21879;50.110;18.900;2023-04-30T20:52:22;99096.67;;;11.45;44.77
35758;BME280;21879;50.110;18.900;2023-04-30T21:02:48;99099.98;;;11.14;44.90
35758;BME280;21879;50.110;18.900;2023-04-30T21:13:15;99104.95;;;10.94;45.84
35758;BME280;21879;50.110;18.900;2023-04-30T21:23:41;99110.77;;;10.78;46.42
35758;BME280;21879;50.110;18.900;2023-04-30T21:34:11;99121.77;;;10.62;46.16
35758;BME280;21879;50.110;18.900;2023-04-30T21:44:37;99123.23;;;10.40;46.59
35758;BME280;21879;50.110;18.900;2023-04-30T21:55:04;99135.41;;;10.25;47.13
35758;BME280;21879;50.110;18.900;2023-04-30T22:05:29;99147.39;;;10.04;47.38
35758;BME280;21879;50.110;18.900;2023-04-30T22:15:55;99154.00;;;9.87;47.72
35758;BME280;21879;50.110;18.900;2023-04-30T22:26:21;99164.38;;;9.63;48.08
35758;BME280;21879;50.110;18.900;2023-04-30T22:36:49;99171.44;;;9.36;48.25
35758;BME280;21879;50.110;18.900;2023-04-30T22:47:15;99184.73;;;9.14;48.48
35758;BME280;21879;50.110;18.900;2023-04-30T22:57:41;99186.73;;;8.97;48.66
35758;BME280;21879;50.110;18.900;2023-04-30T23:08:07;99188.86;;;8.72;49.01
35758;BME280;21879;50.110;18.900;2023-04-30T23:18:33;99195.20;;;8.60;49.26
35758;BME280;21879;50.110;18.900;2023-04-30T23:29:00;99196.80;;;8.40;49.62
35758;BME280;21879;50.110;18.900;2023-04-30T23:39:26;99197.89;;;8.26;49.74
35758;BME280;21879;50.110;18.900;2023-04-30T23:49:52;99199.73;;;8.20;49.81
